aviador You're here:

KOTH Decoded Metar

NORTH BEND in OR, USA
Report Time2018-06-17 21:28:00
UTC Time2018-06-17 21:42:03
Flight Rules ifr IFR
Wind340° at 11 Gusting to 18 kt
W.Decomp.*RWY 31: 10.8 kt HW 2.3 kt RCW
RWY 04: 2.3 kt HW 10.8 kt LCW
W.Rank340° ranks 8
Current wind is above 340° avg. (8.1)
Visibility9999 m
Phenomena:Mist
Clouds:Overcast 007 Hf
Expected CloudBase > 1,200 ft AGL from Temp-Dew spread
Ceiling700 ft
Temp17°C (ISA +2)
Dew Point14°C (83% RH)
AAT14.3°C
QNH1014 hPa
Density Alt430 ft
Elevation13 ft
Report Wrong Elevation
Raw Report
KOTH 172128Z 34011G18KT 8SM BR OVC007 17/14 A2994 RMK AO2=

Extra information for KOTH:More info

Metar Taf Metar & Taf Last 4 Metars F.Rules Stats Wind Profile Meteogram Temp Stats Airport Information Weather charts Add Link Nearby VenuesMetar ALERT Operation Metar Decoded Social comments

AIRNAV info for KOTH